Time;durP1;ratioP1;P1;durP2;ratioP2;P2;SDS_P1;SDS_P2;PMS_P1;PMS_P2;Temp;Humidity;BMP_temperature;BMP_pressure;BME280_temperature;BME280_humidity;BME280_pressure;Samples;Min_cycle;Max_cycle;Signal;HPM_P1;HPM_P2
2022/05/22 04:02:19;;;;;;;4.75;3.40;;;10.70;99.90;;;;;;5088383;23;20664;-68
2022/05/22 04:04:46;;;;;;;3.85;3.50;;;10.70;99.90;;;;;;4953046;28;20237;-68
2022/05/22 04:07:13;;;;;;;4.50;3.42;;;10.70;99.90;;;;;;4950742;28;20217;-68
2022/05/22 04:09:40;;;;;;;8.18;3.45;;;10.70;99.90;;;;;;4952389;28;20216;-69
2022/05/22 04:12:08;;;;;;;7.18;3.45;;;10.70;99.90;;;;;;4953488;28;20228;-67
2022/05/22 04:14:35;;;;;;;6.05;3.50;;;10.70;99.90;;;;;;4986742;23;20611;-70
2022/05/22 04:17:01;;;;;;;4.13;3.72;;;10.80;99.90;;;;;;4991225;28;20200;-71
2022/05/22 04:19:31;;;;;;;4.57;3.60;;;10.80;99.90;;;;;;4991859;28;20208;-71
2022/05/22 04:21:58;;;;;;;4.65;4.18;;;10.90;99.90;;;;;;4992056;28;20683;-71
2022/05/22 04:27:10;;;;;;;5.57;3.80;;;11.00;99.90;;;;;;4972744;28;20578;-71
2022/05/22 04:29:37;;;;;;;5.70;3.42;;;11.10;99.90;;;;;;4961774;28;20727;-71
2022/05/22 04:32:05;;;;;;;3.35;3.05;;;11.20;99.90;;;;;;4970604;28;20725;-71
2022/05/22 04:34:33;;;;;;;3.70;3.38;;;11.30;99.90;;;;;;4966905;28;20229;-70
2022/05/22 04:37:00;;;;;;;3.45;3.15;;;11.50;99.90;;;;;;4972571;28;20216;-71
2022/05/22 04:39:27;;;;;;;3.50;3.20;;;11.60;99.90;;;;;;4965237;28;20200;-71
2022/05/22 04:41:53;;;;;;;6.73;3.63;;;11.90;99.90;;;;;;4971700;28;20542;-71
2022/05/22 04:44:20;;;;;;;4.10;3.07;;;12.10;99.90;;;;;;4970751;28;20499;-69
2022/05/22 04:46:47;;;;;;;3.23;3.03;;;12.30;99.90;;;;;;4971731;28;20487;-69
2022/05/22 04:49:14;;;;;;;3.30;3.10;;;12.30;99.90;;;;;;4971726;28;20522;-69
2022/05/22 04:51:42;;;;;;;3.67;3.47;;;12.30;99.90;;;;;;4972106;28;20467;-70
2022/05/22 04:54:08;;;;;;;3.67;3.33;;;12.30;99.90;;;;;;4971719;28;20480;-70
2022/05/22 04:56:35;;;;;;;4.70;3.17;;;12.40;99.90;;;;;;4971210;28;20460;-70
2022/05/22 04:59:02;;;;;;;5.03;3.97;;;12.30;99.90;;;;;;4964347;28;20460;-70
2022/05/22 05:01:28;;;;;;;4.60;3.40;;;12.40;99.90;;;;;;4951867;28;20464;-70
2022/05/22 05:03:55;;;;;;;3.30;3.00;;;12.50;99.90;;;;;;4959202;28;20484;-69
2022/05/22 05:06:22;;;;;;;4.17;3.50;;;12.60;99.90;;;;;;4976804;28;20518;-69
2022/05/22 05:08:50;;;;;;;3.57;3.27;;;12.60;99.90;;;;;;4975418;28;20824;-70
2022/05/22 05:11:17;;;;;;;3.67;3.47;;;12.50;99.90;;;;;;4952042;28;20471;-70
2022/05/22 05:13:43;;;;;;;3.67;2.90;;;12.50;99.90;;;;;;4965637;28;20526;-69
2022/05/22 05:16:12;;;;;;;4.17;3.77;;;12.50;99.90;;;;;;4971295;28;20552;-70
2022/05/22 05:18:39;;;;;;;7.70;3.40;;;12.60;99.90;;;;;;4971741;28;20527;-69
2022/05/22 05:21:08;;;;;;;5.37;3.57;;;12.60;99.90;;;;;;4970942;28;20526;-69
2022/05/22 05:23:36;;;;;;;3.40;3.20;;;12.60;99.90;;;;;;4971021;28;20538;-69
2022/05/22 05:26:05;;;;;;;3.70;3.60;;;12.60;99.90;;;;;;4967252;28;20497;-69
2022/05/22 05:28:32;;;;;;;4.23;3.87;;;12.60;99.90;;;;;;4969986;28;20460;-69
2022/05/22 05:30:59;;;;;;;4.53;3.40;;;12.60;99.90;;;;;;4954050;28;20461;-69
2022/05/22 05:33:26;;;;;;;6.30;3.40;;;12.60;99.90;;;;;;4961509;28;20468;-69
2022/05/22 05:35:53;;;;;;;5.10;3.37;;;12.60;99.90;;;;;;4971185;28;20464;-70
2022/05/22 05:38:20;;;;;;;7.43;3.60;;;12.70;99.90;;;;;;4971690;28;20463;-70
2022/05/22 05:40:49;;;;;;;3.23;3.00;;;12.80;99.90;;;;;;4955112;28;20472;-70
2022/05/22 05:43:17;;;;;;;4.20;3.80;;;12.80;99.90;;;;;;4959665;28;20518;-70
2022/05/22 05:45:44;;;;;;;7.87;4.10;;;12.80;99.90;;;;;;4970422;28;20484;-69
2022/05/22 05:48:11;;;;;;;3.23;3.03;;;12.90;99.90;;;;;;4971615;28;20486;-69
2022/05/22 05:50:37;;;;;;;3.73;3.10;;;12.90;99.90;;;;;;4970499;28;20606;-69
2022/05/22 05:53:04;;;;;;;4.90;3.67;;;13.00;99.90;;;;;;4965496;28;20467;-69
2022/05/22 05:55:31;;;;;;;5.03;3.73;;;13.00;99.90;;;;;;4971307;28;20611;-69
2022/05/22 05:57:57;;;;;;;4.73;3.00;;;13.00;99.90;;;;;;4971122;28;20575;-69
2022/05/22 06:00:26;;;;;;;9.17;3.80;;;13.10;99.90;;;;;;4962236;28;20520;-70
2022/05/22 06:02:53;;;;;;;10.90;4.60;;;13.20;99.90;;;;;;4980755;28;20467;-70
2022/05/22 06:05:21;;;;;;;4.40;3.00;;;13.20;99.90;;;;;;4963206;28;20498;-70
2022/05/22 06:07:51;;;;;;;4.20;3.30;;;13.30;99.90;;;;;;4964849;28;20500;-70
2022/05/22 06:10:19;;;;;;;3.50;3.23;;;13.30;99.90;;;;;;4969417;28;20465;-70
2022/05/22 06:12:46;;;;;;;3.60;3.00;;;13.50;99.90;;;;;;4959737;28;20472;-70
2022/05/22 06:15:13;;;;;;;3.27;3.00;;;13.70;99.90;;;;;;4974582;28;20570;-70
2022/05/22 06:17:44;;;;;;;4.00;3.40;;;13.90;99.90;;;;;;4974668;28;20486;-69
2022/05/22 06:20:14;;;;;;;4.63;3.57;;;14.00;99.90;;;;;;4973202;28;20464;-69
2022/05/22 06:22:42;;;;;;;7.60;3.70;;;14.00;99.90;;;;;;4975174;28;20472;-70
2022/05/22 06:25:12;;;;;;;3.87;3.50;;;14.10;99.90;;;;;;4969177;28;20540;-69
2022/05/22 06:27:39;;;;;;;3.67;3.33;;;14.10;99.90;;;;;;4955586;28;20472;-70
2022/05/22 06:30:07;;;;;;;6.73;3.20;;;14.20;99.90;;;;;;4969778;28;20852;-69
2022/05/22 06:32:34;;;;;;;3.63;3.33;;;14.30;99.90;;;;;;4974619;28;20534;-69
2022/05/22 06:35:02;;;;;;;5.37;3.10;;;14.50;99.90;;;;;;4972890;28;20483;-69
2022/05/22 06:37:28;;;;;;;3.97;2.80;;;15.20;99.90;;;;;;4973374;28;20459;-69
2022/05/22 06:39:55;;;;;;;3.33;2.83;;;16.10;99.90;;;;;;4978393;28;20459;-69
2022/05/22 06:42:24;;;;;;;3.30;3.00;;;16.40;99.90;;;;;;4975105;28;20542;-70
2022/05/22 06:44:52;;;;;;;3.33;3.07;;;16.40;99.90;;;;;;4972357;28;20479;-69
2022/05/22 06:47:19;;;;;;;4.50;2.80;;;16.40;99.90;;;;;;4955102;28;20476;-69
2022/05/22 06:49:46;;;;;;;3.07;2.67;;;16.40;99.90;;;;;;4971445;28;20468;-69
2022/05/22 06:52:15;;;;;;;4.17;3.50;;;16.20;99.90;;;;;;4974254;28;20482;-69
2022/05/22 06:54:41;;;;;;;2.97;2.87;;;16.20;99.90;;;;;;4973066;28;20523;-68
2022/05/22 06:57:08;;;;;;;3.93;3.67;;;16.10;99.90;;;;;;4972681;28;20514;-68
2022/05/22 06:59:35;;;;;;;4.93;3.60;;;16.20;99.90;;;;;;4971609;28;20876;-68
2022/05/22 07:02:04;;;;;;;3.40;2.57;;;16.30;99.90;;;;;;4973409;28;20940;-69
2022/05/22 07:04:31;;;;;;;5.77;3.40;;;16.40;99.90;;;;;;4965749;28;20480;-71
2022/05/22 07:06:58;;;;;;;4.30;2.50;;;16.50;99.90;;;;;;4974321;28;20499;-69
2022/05/22 07:09:26;;;;;;;4.03;2.60;;;16.60;99.90;;;;;;4973725;28;20852;-70
2022/05/22 07:11:55;;;;;;;5.83;2.50;;;16.50;99.90;;;;;;4973700;28;20468;-70
2022/05/22 07:14:23;;;;;;;4.73;2.77;;;16.60;99.90;;;;;;4969281;28;20484;-70
2022/05/22 07:16:50;;;;;;;5.73;2.00;;;16.80;99.90;;;;;;4972597;28;20960;-70
2022/05/22 07:19:18;;;;;;;3.40;2.23;;;16.70;99.90;;;;;;4973529;28;20518;-70
2022/05/22 07:21:45;;;;;;;3.17;2.80;;;16.70;99.90;;;;;;4972268;28;20464;-70
2022/05/22 07:24:12;;;;;;;2.97;2.50;;;16.70;99.90;;;;;;4966881;28;20492;-70
2022/05/22 07:26:41;;;;;;;3.00;2.57;;;16.90;99.90;;;;;;4958251;28;20543;-70
2022/05/22 07:29:07;;;;;;;4.30;2.90;;;17.00;99.90;;;;;;4972173;28;20468;-70
2022/05/22 07:31:34;;;;;;;2.10;1.90;;;17.10;99.90;;;;;;4972419;28;20964;-70
2022/05/22 07:34:01;;;;;;;2.90;2.07;;;17.20;99.90;;;;;;4972613;28;20484;-70
2022/05/22 07:36:28;;;;;;;3.33;2.33;;;17.20;99.90;;;;;;4973110;28;20518;-70
2022/05/22 07:38:55;;;;;;;2.40;2.20;;;17.10;99.90;;;;;;4972420;28;21001;-70
2022/05/22 07:41:22;;;;;;;2.87;2.37;;;17.30;99.90;;;;;;4971883;28;20514;-70
2022/05/22 07:43:50;;;;;;;2.00;1.80;;;17.40;99.90;;;;;;4978618;28;20492;-70
2022/05/22 07:46:17;;;;;;;4.83;2.40;;;17.50;99.90;;;;;;4970436;28;20971;-70
2022/05/22 07:48:44;;;;;;;2.23;2.13;;;17.70;99.90;;;;;;4973172;28;20488;-70
2022/05/22 07:51:12;;;;;;;1.90;1.80;;;18.10;99.90;;;;;;4986919;28;20467;-70
2022/05/22 07:53:39;;;;;;;1.60;1.50;;;18.30;99.90;;;;;;4953750;28;20567;-70
2022/05/22 07:56:06;;;;;;;3.07;1.80;;;18.20;99.90;;;;;;4959622;28;20542;-69
2022/05/22 07:58:34;;;;;;;4.00;2.30;;;17.80;99.90;;;;;;4973454;28;20460;-70
2022/05/22 08:01:03;;;;;;;2.40;2.20;;;17.70;99.90;;;;;;4964327;28;20575;-69
2022/05/22 08:03:30;;;;;;;3.27;2.67;;;17.40;99.90;;;;;;4968354;28;20464;-70
2022/05/22 08:05:57;;;;;;;2.77;1.70;;;17.30;99.90;;;;;;4966595;28;20484;-70
2022/05/22 08:08:24;;;;;;;2.73;2.20;;;17.30;99.90;;;;;;4970429;28;20522;-69
2022/05/22 08:10:53;;;;;;;3.53;2.07;;;17.30;99.90;;;;;;4967585;28;20961;-69
2022/05/22 08:13:21;;;;;;;1.70;1.70;;;17.70;99.90;;;;;;4956041;28;21050;-69
2022/05/22 08:15:47;;;;;;;1.87;1.77;;;18.60;99.90;;;;;;4958971;28;20452;-69
2022/05/22 08:18:15;;;;;;;1.90;1.63;;;18.90;99.90;;;;;;4972786;28;20615;-70
2022/05/22 08:20:44;;;;;;;1.63;1.50;;;18.70;99.90;;;;;;4970997;28;20460;-69
2022/05/22 08:23:19;;;;;;;4.43;2.20;;;18.50;99.90;;;;;;4972671;28;21047;-69
2022/05/22 08:25:46;;;;;;;1.97;1.60;;;18.00;99.90;;;;;;4971569;28;20570;-69
2022/05/22 08:28:13;;;;;;;5.97;2.30;;;17.90;99.90;;;;;;4955215;28;20472;-69
2022/05/22 08:30:40;;;;;;;2.40;1.80;;;18.00;99.90;;;;;;4963866;28;20465;-69
2022/05/22 08:33:07;;;;;;;1.57;1.47;;;18.40;99.90;;;;;;4968030;28;20567;-70
2022/05/22 08:35:39;;;;;;;1.70;1.60;;;18.30;99.90;;;;;;4964056;28;20511;-70
2022/05/22 08:38:07;;;;;;;3.30;1.60;;;18.30;99.90;;;;;;4972209;28;20475;-70
2022/05/22 08:40:45;;;;;;;1.30;1.20;;;18.00;99.90;;;;;;4970047;28;20468;-70
2022/05/22 08:43:15;;;;;;;1.97;1.40;;;18.00;99.90;;;;;;4971055;28;20463;-70
2022/05/22 08:45:45;;;;;;;0.90;0.90;;;17.90;99.90;;;;;;4969214;28;20492;-70
2022/05/22 08:48:16;;;;;;;1.97;1.00;;;17.90;99.90;;;;;;4980382;28;20471;-70
2022/05/22 08:50:47;;;;;;;1.80;1.10;;;17.70;99.90;;;;;;4964103;28;20469;-70
2022/05/22 08:53:22;;;;;;;1.50;1.40;;;17.60;99.90;;;;;;4963818;28;20988;-70
2022/05/22 08:58:57;;;;;;;1.30;1.30;;;17.70;99.90;;;;;;4971501;28;20526;-70
2022/05/22 09:01:32;;;;;;;3.10;2.90;;;17.80;99.90;;;;;;4961846;28;20475;-70
2022/05/22 09:04:06;;;;;;;1.10;1.10;;;17.80;99.90;;;;;;4967920;28;20488;-70
2022/05/22 09:06:40;;;;;;;1.17;1.17;;;18.00;99.90;;;;;;4957017;28;20480;-71
2022/05/22 09:09:07;;;;;;;1.47;1.20;;;18.40;99.90;;;;;;4972386;28;20522;-71
2022/05/22 09:11:45;;;;;;;0.97;0.97;;;18.60;99.90;;;;;;4972359;28;20491;-71
2022/05/22 09:14:22;;;;;;;1.10;1.10;;;18.80;99.90;;;;;;4972274;28;20610;-71
2022/05/22 09:16:56;;;;;;;1.40;1.00;;;18.80;99.90;;;;;;4972329;28;20523;-70
2022/05/22 09:19:32;;;;;;;2.40;1.13;;;18.80;99.90;;;;;;4964338;28;20468;-70
2022/05/22 09:22:13;;;;;;;1.80;1.60;;;18.70;99.90;;;;;;4973523;28;20464;-70
2022/05/22 09:24:50;;;;;;;1.90;1.50;;;18.50;99.90;;;;;;4971245;28;20545;-70
2022/05/22 09:27:22;;;;;;;3.03;1.30;;;18.50;99.90;;;;;;4968765;28;20487;-70
2022/05/22 09:30:03;;;;;;;0.90;0.90;;;18.40;99.90;;;;;;4961308;28;20921;-69
2022/05/22 09:32:43;;;;;;;4.57;1.20;;;18.30;99.90;;;;;;4962483;28;20474;-70
2022/05/22 09:35:21;;;;;;;1.97;1.77;;;18.30;99.90;;;;;;4970841;28;20570;-70
2022/05/22 09:38:02;;;;;;;1.33;1.20;;;18.40;99.90;;;;;;4967548;28;20463;-70
2022/05/22 09:40:39;;;;;;;1.30;1.17;;;18.30;99.90;;;;;;4982701;28;20466;-70
2022/05/22 09:43:27;;;;;;;3.03;1.30;;;18.10;99.90;;;;;;4980362;28;20467;-70
2022/05/22 09:46:04;;;;;;;1.37;1.27;;;18.00;99.90;;;;;;4970028;28;20464;-70
2022/05/22 09:48:45;;;;;;;1.80;1.00;;;18.10;99.90;;;;;;4969706;28;20522;-70
2022/05/22 09:51:19;;;;;;;1.50;1.40;;;18.00;99.90;;;;;;4970615;28;20905;-70
2022/05/22 09:54:01;;;;;;;2.00;0.97;;;18.10;99.90;;;;;;4960856;28;21079;-70
2022/05/22 09:56:37;;;;;;;4.27;1.60;;;18.30;99.90;;;;;;4967307;28;20461;-70
2022/05/22 09:59:22;;;;;;;1.00;1.00;;;18.60;99.90;;;;;;4969731;28;20802;-70
2022/05/22 10:01:55;;;;;;;3.03;1.57;;;18.70;99.90;;;;;;4967910;28;20459;-70
2022/05/22 10:04:34;;;;;;;1.10;1.10;;;18.80;99.90;;;;;;4972557;28;20587;-70
2022/05/22 10:07:10;;;;;;;1.10;1.00;;;18.90;99.90;;;;;;4970050;28;20491;-70
2022/05/22 10:09:48;;;;;;;1.00;1.00;;;19.00;99.90;;;;;;4968116;28;20894;-70
2022/05/22 10:12:28;;;;;;;1.93;1.00;;;19.10;99.90;;;;;;4971802;28;20518;-70
2022/05/22 10:15:10;;;;;;;1.10;1.10;;;19.20;99.90;;;;;;4970229;23;20468;-67
2022/05/22 10:17:51;;;;;;;1.03;1.00;;;19.20;99.90;;;;;;4974116;28;20455;-66
2022/05/22 10:20:31;;;;;;;2.20;1.10;;;19.00;99.90;;;;;;4972481;28;21024;-66
2022/05/22 10:23:05;;;;;;;1.60;0.90;;;19.00;99.90;;;;;;4973449;28;20915;-66
2022/05/22 10:25:44;;;;;;;1.53;1.53;;;18.80;99.90;;;;;;4965146;28;20488;-67
2022/05/22 10:28:15;;;;;;;2.70;1.33;;;18.70;99.90;;;;;;4952447;28;20492;-66
2022/05/22 10:30:48;;;;;;;4.27;1.20;;;18.60;99.90;;;;;;4946221;28;20461;-66
2022/05/22 10:33:20;;;;;;;1.80;1.30;;;18.80;99.90;;;;;;4946341;29;20536;-66
2022/05/22 10:35:53;;;;;;;1.63;1.40;;;18.70;99.90;;;;;;4952351;29;21222;-66
2022/05/22 10:38:22;;;;;;;2.07;1.73;;;18.80;99.90;;;;;;4952298;28;20934;-68
2022/05/22 10:43:47;;;;;;;1.10;1.10;;;18.80;99.90;;;;;;4942872;29;20487;-68
2022/05/22 10:46:14;;;;;;;1.80;1.20;;;18.90;99.90;;;;;;4937674;28;20544;-68
2022/05/22 10:48:48;;;;;;;1.37;1.20;;;19.10;99.90;;;;;;4947693;29;20958;-68
2022/05/22 10:51:24;;;;;;;2.50;1.57;;;18.90;99.90;;;;;;4941190;29;20460;-68
2022/05/22 10:53:54;;;;;;;2.50;1.43;;;18.90;99.90;;;;;;4950243;28;20471;-68
2022/05/22 10:56:24;;;;;;;1.00;1.00;;;18.80;99.90;;;;;;4962241;28;20555;-68
2022/05/22 10:58:54;;;;;;;1.60;1.60;;;18.90;99.90;;;;;;4950700;28;20458;-68
2022/05/22 11:01:23;;;;;;;1.07;1.07;;;19.00;99.90;;;;;;4952049;29;20487;-68
2022/05/22 11:04:01;;;;;;;1.70;1.47;;;19.00;99.90;;;;;;4935193;29;20577;-68
2022/05/22 11:06:27;;;;;;;1.13;1.13;;;19.00;99.90;;;;;;4953307;28;20492;-69
2022/05/22 11:08:56;;;;;;;1.93;1.20;;;18.90;99.90;;;;;;4941612;29;20460;-68
2022/05/22 11:11:26;;;;;;;1.13;0.90;;;18.90;99.90;;;;;;4951772;28;20846;-66
2022/05/22 11:14:04;;;;;;;1.27;1.20;;;19.00;99.90;;;;;;4954330;28;20861;-67
2022/05/22 11:16:31;;;;;;;1.00;1.00;;;19.10;99.90;;;;;;4953708;28;21090;-67
2022/05/22 11:19:08;;;;;;;2.47;1.83;;;19.20;99.90;;;;;;4952886;28;21047;-67
2022/05/22 11:21:41;;;;;;;1.63;1.20;;;19.30;99.90;;;;;;4941009;28;20466;-67
2022/05/22 11:24:15;;;;;;;1.03;0.93;;;19.20;99.90;;;;;;4940012;29;20464;-67
2022/05/22 11:26:56;;;;;;;1.50;0.93;;;19.20;99.90;;;;;;4940381;28;20485;-67
2022/05/22 11:29:53;;;;;;;0.87;0.80;;;19.10;99.90;;;;;;4944587;29;20462;-67
2022/05/22 11:32:31;;;;;;;2.30;1.00;;;19.30;99.90;;;;;;4931782;29;20473;-68
2022/05/22 11:35:23;;;;;;;2.23;1.57;;;19.20;99.90;;;;;;4952635;28;20977;-67
2022/05/22 11:38:02;;;;;;;0.80;0.80;;;19.20;99.90;;;;;;4938815;29;20622;-67
2022/05/22 11:40:34;;;;;;;0.83;0.83;;;19.30;99.90;;;;;;4937733;29;20558;-67
2022/05/22 11:43:14;;;;;;;15.60;2.17;;;19.50;99.90;;;;;;4951941;28;20461;-68
2022/05/22 11:45:51;;;;;;;0.93;0.80;;;19.80;99.90;;;;;;4948250;28;20520;-68
2022/05/22 11:48:41;;;;;;;2.50;0.97;;;19.90;99.90;;;;;;4952248;29;20567;-69
2022/05/22 11:51:28;;;;;;;1.30;0.87;;;19.90;99.90;;;;;;4949735;28;20938;-68
2022/05/22 11:54:13;;;;;;;5.67;1.00;;;20.20;99.90;;;;;;4958946;28;20464;-68
2022/05/22 11:56:53;;;;;;;1.50;0.93;;;20.20;99.90;;;;;;4953033;28;20871;-68
2022/05/22 11:59:48;;;;;;;1.60;0.93;;;20.30;99.90;;;;;;4944482;29;20472;-67
2022/05/22 12:02:20;;;;;;;0.80;0.80;;;20.30;99.90;;;;;;4944839;29;20515;-68
2022/05/22 12:05:13;;;;;;;1.00;1.00;;;20.00;99.90;;;;;;4952466;28;20492;-67
2022/05/22 12:08:03;;;;;;;1.30;1.20;;;19.80;99.90;;;;;;4952933;28;20496;-68
2022/05/22 12:10:33;;;;;;;1.67;1.60;;;19.60;99.90;;;;;;4954279;28;20829;-67
2022/05/22 12:13:07;;;;;;;1.83;1.80;;;19.50;99.90;;;;;;4958932;28;20468;-67
2022/05/22 12:15:44;;;;;;;2.33;2.07;;;19.40;99.90;;;;;;4951119;28;20497;-68
2022/05/22 12:18:25;;;;;;;1.10;1.10;;;19.40;99.90;;;;;;4963095;28;20460;-68
2022/05/22 12:20:55;;;;;;;1.70;1.60;;;19.30;99.90;;;;;;4945737;29;20535;-67
2022/05/22 12:23:27;;;;;;;2.33;0.97;;;19.50;99.90;;;;;;4953091;28;20548;-67
2022/05/22 12:25:56;;;;;;;0.97;0.93;;;19.60;99.90;;;;;;4952658;28;20984;-67
2022/05/22 12:28:38;;;;;;;0.90;0.90;;;19.80;99.90;;;;;;4953135;28;20850;-68
2022/05/22 12:31:10;;;;;;;1.37;1.00;;;19.90;99.90;;;;;;4948754;28;20548;-68
2022/05/22 12:33:38;;;;;;;1.20;1.10;;;19.80;99.20;;;;;;4952480;28;20523;-67
2022/05/22 12:36:07;;;;;;;0.93;0.93;;;19.70;98.80;;;;;;4952125;28;20499;-68
2022/05/22 12:38:39;;;;;;;1.40;1.33;;;19.60;99.90;;;;;;4962195;28;20515;-68
2022/05/22 12:41:15;;;;;;;1.03;1.03;;;19.80;99.60;;;;;;4952221;28;20976;-68
2022/05/22 12:43:44;;;;;;;1.03;1.03;;;19.90;98.30;;;;;;4950287;28;20451;-68
2022/05/22 12:46:13;;;;;;;0.80;0.80;;;19.90;99.10;;;;;;4951827;28;20493;-68
2022/05/22 12:48:43;;;;;;;0.97;0.90;;;20.00;99.40;;;;;;4960080;28;20489;-68
2022/05/22 12:51:22;;;;;;;1.40;1.30;;;19.80;98.50;;;;;;4952087;28;20880;-68
2022/05/22 12:53:50;;;;;;;1.27;1.07;;;19.60;98.00;;;;;;4949586;28;21000;-68
2022/05/22 12:56:24;;;;;;;1.50;1.40;;;19.50;99.20;;;;;;4950085;28;20906;-68
2022/05/22 12:58:57;;;;;;;1.00;1.00;;;19.50;99.80;;;;;;4959499;28;20457;-68
2022/05/22 13:01:42;;;;;;;0.87;0.87;;;19.50;99.00;;;;;;4956845;28;20461;-68
2022/05/22 13:04:23;;;;;;;1.30;1.30;;;19.40;99.70;;;;;;4961934;28;20542;-68
2022/05/22 13:06:53;;;;;;;1.17;1.10;;;19.20;99.00;;;;;;4955117;28;20857;-68
2022/05/22 13:09:25;;;;;;;1.20;1.20;;;19.20;99.90;;;;;;4952114;28;20539;-68
2022/05/22 13:11:55;;;;;;;1.60;1.03;;;19.20;99.20;;;;;;4951459;28;20500;-68
2022/05/22 13:14:26;;;;;;;0.90;0.90;;;19.30;98.70;;;;;;4951753;28;20607;-68
2022/05/22 13:16:55;;;;;;;2.30;1.00;;;19.30;98.00;;;;;;4962984;28;20499;-68
2022/05/22 13:19:25;;;;;;;1.50;1.10;;;19.30;98.70;;;;;;4954809;28;20472;-68
2022/05/22 13:21:53;;;;;;;1.00;1.00;;;19.30;99.60;;;;;;4952165;28;20890;-67
2022/05/22 13:24:29;;;;;;;2.30;1.00;;;19.30;99.40;;;;;;4952953;28;20464;-68
2022/05/22 13:26:59;;;;;;;0.90;0.80;;;19.30;99.60;;;;;;4947780;28;20507;-67
2022/05/22 13:29:30;;;;;;;2.57;0.73;;;19.40;99.40;;;;;;4955613;28;20520;-67
2022/05/22 13:32:00;;;;;;;0.90;0.90;;;19.60;98.40;;;;;;4957953;28;20526;-67
2022/05/22 13:34:29;;;;;;;3.37;0.77;;;19.90;98.40;;;;;;4973472;28;20518;-67
2022/05/22 13:36:59;;;;;;;0.80;0.80;;;19.90;97.50;;;;;;4958868;28;20492;-67
2022/05/22 13:39:52;;;;;;;0.90;0.90;;;19.90;97.50;;;;;;4956160;28;20472;-67
2022/05/22 13:42:58;;;;;;;0.80;0.80;;;19.60;97.20;;;;;;4967949;28;20916;-67
2022/05/22 13:46:22;;;;;;;1.10;1.07;;;19.40;98.70;;;;;;4959118;28;20530;-67
2022/05/22 13:49:14;;;;;;;0.83;0.80;;;19.30;98.90;;;;;;4955844;29;20492;-68
2022/05/22 13:54:48;;;;;;;0.97;0.73;;;19.50;99.00;;;;;;4954728;29;20456;-68
2022/05/22 13:57:18;;;;;;;1.50;1.40;;;19.60;98.60;;;;;;4949303;28;20545;-68
2022/05/22 13:59:49;;;;;;;0.80;0.80;;;19.80;98.70;;;;;;4958762;28;20523;-68
2022/05/22 14:02:19;;;;;;;0.90;0.90;;;20.00;98.30;;;;;;4956439;28;20547;-68
2022/05/22 14:04:49;;;;;;;1.13;0.90;;;20.20;98.70;;;;;;4954505;28;20468;-68
2022/05/22 14:07:24;;;;;;;0.53;0.53;;;20.40;97.40;;;;;;4959353;28;20468;-68
2022/05/22 14:09:52;;;;;;;1.73;0.70;;;20.60;96.90;;;;;;4961936;28;20471;-68
2022/05/22 14:12:28;;;;;;;2.20;0.60;;;20.70;97.30;;;;;;4963770;28;20827;-68
2022/05/22 14:14:54;;;;;;;1.30;0.70;;;20.80;95.90;;;;;;4954548;28;20464;-67
2022/05/22 14:17:31;;;;;;;1.13;0.80;;;20.80;95.40;;;;;;4952090;28;20452;-68
2022/05/22 14:20:08;;;;;;;0.70;0.70;;;20.90;95.20;;;;;;4935609;29;20468;-68
2022/05/22 14:22:35;;;;;;;0.73;0.73;;;20.80;95.80;;;;;;4949579;28;20560;-68
2022/05/22 14:25:05;;;;;;;1.80;1.10;;;20.80;95.60;;;;;;4965020;28;20518;-68
2022/05/22 14:27:38;;;;;;;0.80;0.80;;;20.80;95.60;;;;;;4957677;28;20519;-68
2022/05/22 14:30:20;;;;;;;0.80;0.80;;;20.70;96.20;;;;;;4954205;28;20885;-68
2022/05/22 14:32:50;;;;;;;0.53;0.53;;;20.60;96.60;;;;;;4955375;28;20461;-68
2022/05/22 14:35:22;;;;;;;0.93;0.90;;;20.40;96.60;;;;;;4954595;28;20477;-68
2022/05/22 14:37:49;;;;;;;1.07;0.90;;;20.20;96.30;;;;;;4955026;28;20464;-68
2022/05/22 14:40:23;;;;;;;1.47;0.73;;;20.00;96.00;;;;;;4950722;28;20517;-68
2022/05/22 14:42:55;;;;;;;0.70;0.70;;;20.00;96.60;;;;;;4955344;28;20499;-68
2022/05/22 14:45:29;;;;;;;0.80;0.80;;;19.90;96.90;;;;;;4951890;28;20989;-68
2022/05/22 14:47:58;;;;;;;0.93;0.80;;;19.90;96.70;;;;;;4968171;28;20482;-68
2022/05/22 14:50:26;;;;;;;0.90;0.90;;;19.90;96.80;;;;;;4946016;28;20488;-68
2022/05/22 14:53:01;;;;;;;0.70;0.70;;;20.10;96.80;;;;;;4936069;29;20883;-68
2022/05/22 14:55:32;;;;;;;0.60;0.60;;;20.20;96.20;;;;;;4943881;29;20480;-69
2022/05/22 14:58:04;;;;;;;0.97;0.90;;;20.50;96.50;;;;;;4949294;29;20867;-68
2022/05/22 15:00:34;;;;;;;2.00;0.93;;;20.70;96.70;;;;;;4950453;28;20459;-68
2022/05/22 15:03:04;;;;;;;0.67;0.67;;;20.70;95.70;;;;;;4954036;28;20532;-68
2022/05/22 15:05:37;;;;;;;0.73;0.73;;;20.40;95.50;;;;;;4953423;28;20885;-68
2022/05/22 15:08:07;;;;;;;0.70;0.70;;;20.40;96.20;;;;;;4944561;28;20599;-68
2022/05/22 15:10:36;;;;;;;0.93;0.80;;;20.50;96.00;;;;;;4942138;29;20456;-68
2022/05/22 15:13:15;;;;;;;2.20;0.70;;;20.70;95.90;;;;;;4949577;28;20524;-68
2022/05/22 15:15:42;;;;;;;0.97;0.97;;;20.80;95.20;;;;;;4934763;29;20501;-68
2022/05/22 15:18:16;;;;;;;0.70;0.70;;;21.00;94.70;;;;;;4952313;29;20551;-68
2022/05/22 15:20:45;;;;;;;0.70;0.70;;;21.00;94.30;;;;;;4955709;28;20531;-68
2022/05/22 15:26:04;;;;;;;1.20;0.80;;;21.20;93.80;;;;;;4954886;29;20977;-68
2022/05/22 15:28:33;;;;;;;1.00;1.00;;;21.20;93.60;;;;;;4954832;28;20841;-68
2022/05/22 15:31:11;;;;;;;0.97;0.97;;;21.20;93.80;;;;;;4950694;28;20489;-67
2022/05/22 15:33:45;;;;;;;1.37;1.37;;;21.10;94.10;;;;;;4969468;28;20475;-68
2022/05/22 15:36:22;;;;;;;0.97;0.80;;;21.10;94.90;;;;;;4958204;28;20481;-67
2022/05/22 15:38:58;;;;;;;2.87;1.00;;;21.20;94.60;;;;;;4948829;29;20508;-67
2022/05/22 15:41:29;;;;;;;0.70;0.70;;;21.20;94.10;;;;;;4949943;28;20875;-67
2022/05/22 15:44:19;;;;;;;1.60;1.13;;;21.00;94.20;;;;;;4954519;28;20469;-67
2022/05/22 15:46:55;;;;;;;2.77;2.50;;;21.00;94.60;;;;;;4953872;28;20483;-67
2022/05/22 15:52:13;;;;;;;1.33;1.23;;;21.10;93.60;;;;;;4952771;28;20464;-68
2022/05/22 15:54:41;;;;;;;0.77;0.77;;;21.20;93.80;;;;;;4953305;28;21025;-67
2022/05/22 15:57:08;;;;;;;0.93;0.93;;;21.20;93.30;;;;;;4952877;28;20472;-67
2022/05/22 15:59:36;;;;;;;3.30;1.10;;;21.30;94.20;;;;;;4954709;28;20478;-67
2022/05/22 16:02:11;;;;;;;1.13;0.73;;;21.20;93.00;;;;;;4972157;28;21025;-67
2022/05/22 16:04:38;;;;;;;1.17;0.90;;;21.20;93.60;;;;;;4950907;29;20618;-67
2022/05/22 16:07:05;;;;;;;0.93;0.77;;;21.30;93.70;;;;;;4953031;28;20488;-67
2022/05/22 16:09:33;;;;;;;1.07;0.97;;;21.30;93.20;;;;;;4952250;28;21028;-67
2022/05/22 16:12:00;;;;;;;0.90;0.90;;;21.20;93.10;;;;;;4953251;28;20476;-67
2022/05/22 16:14:27;;;;;;;0.70;0.70;;;21.10;92.70;;;;;;4952619;28;20465;-67
2022/05/22 16:16:53;;;;;;;1.60;0.90;;;21.10;93.20;;;;;;4956656;28;20551;-67
2022/05/22 16:19:24;;;;;;;6.03;0.90;;;21.00;93.20;;;;;;4959010;28;20478;-67
2022/05/22 16:21:54;;;;;;;0.70;0.70;;;20.90;93.40;;;;;;4959535;28;20453;-66
2022/05/22 16:24:21;;;;;;;1.40;1.00;;;20.80;92.70;;;;;;4952848;28;20551;-66
2022/05/22 16:26:49;;;;;;;0.70;0.60;;;20.70;92.60;;;;;;4956037;28;20512;-67
2022/05/22 16:29:16;;;;;;;0.90;0.90;;;20.60;92.70;;;;;;4956635;28;20501;-66
2022/05/22 16:31:43;;;;;;;1.30;1.13;;;20.50;93.20;;;;;;4951489;28;20799;-66
2022/05/22 16:34:12;;;;;;;0.80;0.80;;;20.40;93.60;;;;;;4970310;28;20519;-66
2022/05/22 16:36:38;;;;;;;1.60;1.60;;;20.30;93.90;;;;;;4955245;28;20667;-66
2022/05/22 16:39:05;;;;;;;1.50;1.30;;;20.20;93.90;;;;;;4956448;28;20461;-66
2022/05/22 16:41:32;;;;;;;1.03;0.90;;;20.10;93.90;;;;;;4952294;28;20464;-66
2022/05/22 16:44:00;;;;;;;0.93;0.93;;;20.10;94.10;;;;;;4952833;28;20465;-66
2022/05/22 16:46:27;;;;;;;0.87;0.87;;;20.00;93.90;;;;;;4951740;28;20485;-66
2022/05/22 16:54:23;;;;;;;1.23;1.20;;;19.90;94.50;;;;;;4944416;28;20890;-67
2022/05/22 16:56:51;;;;;;;1.17;1.13;;;19.80;94.80;;;;;;4953865;28;20711;-66
2022/05/22 16:59:21;;;;;;;0.73;0.73;;;19.70;94.70;;;;;;4952152;28;20479;-67
2022/05/22 17:01:53;;;;;;;0.90;0.80;;;19.60;94.50;;;;;;4950924;28;20886;-67
2022/05/22 17:04:20;;;;;;;1.33;1.20;;;19.60;94.80;;;;;;4952279;28;20794;-67
2022/05/22 17:06:52;;;;;;;0.97;0.90;;;19.60;94.80;;;;;;4933065;29;20580;-66
2022/05/22 17:09:19;;;;;;;2.47;1.00;;;19.60;95.00;;;;;;4950607;29;20472;-66
2022/05/22 17:11:49;;;;;;;0.87;0.87;;;19.60;94.80;;;;;;4951787;28;20468;-66
2022/05/22 17:14:20;;;;;;;0.80;0.80;;;19.60;95.00;;;;;;4951700;28;20516;-66
2022/05/22 17:16:47;;;;;;;1.10;1.10;;;19.60;95.30;;;;;;4963074;28;20483;-67
2022/05/22 17:19:14;;;;;;;0.90;0.90;;;19.60;96.20;;;;;;4955121;28;20519;-66
2022/05/22 17:21:42;;;;;;;1.30;1.20;;;19.60;97.10;;;;;;4951638;28;20464;-66
2022/05/22 17:24:16;;;;;;;1.23;1.10;;;19.60;97.30;;;;;;4952181;28;20465;-66
2022/05/22 17:26:43;;;;;;;0.97;0.97;;;19.60;97.70;;;;;;4951874;28;20511;-66
2022/05/22 17:29:12;;;;;;;2.53;2.27;;;19.40;97.50;;;;;;4951916;28;20531;-67
2022/05/22 17:31:41;;;;;;;2.00;1.40;;;19.40;98.10;;;;;;4950312;28;20469;-67
2022/05/22 17:34:08;;;;;;;2.10;1.10;;;19.30;98.40;;;;;;4968024;23;20530;-71